Victoria, Canada
Current Conditions -  °F | °C
As of 12:00 PM on Thursday 29 Jan 2015 (Local Time) from CYWH Reporting Station
Broken Clouds Broken Clouds  
Wind Chill: 44°   Ceiling: 20000
Heat Index: 46°   Visibility: 15mi
Dew Point: 39°   Wind: 6mph
Humidity: 76%   Direction: 10°N
Pressure: 30.38"   Gusts: NA
Location:  48.43°N, 123.37°W
Report Text: CYWH 292000Z 01005KT 15SM FEW008 SCT072 BKN200 08/04 A3038 RMKCF1AC3CI1 SLP288
Loading
Personal Weather Stations






























Interactive Weather Map New forecast layout! Learn more

10-Day Weather Forecast

Advertisements
Track Severe Weather on mobile